Empire, Nevada
Current Conditions -  °F | °C
As of 3:53 AM on Saturday 20 Dec 2014 (Local Time) from KLOL Reporting Station
Light Rain Light Rain  
Wind Chill: 35°   Ceiling: 4400
Heat Index: 35°   Visibility: 7mi
Dew Point: 32°   Wind: 3mph
Humidity: 89%   Direction: 90°E
Pressure: 30.09"   Gusts: NA
Location:  40.58°N, 119.34°W
Report Text: KLOL 201153Z AUTO 09003KT 7SM -RA OVC044 02/00 A3009 RMK AO2 RAB24 SLP198 P0000 60000 T00170000 10022 20006 58003
Loading
Personal Weather Stations






























Interactive Weather Map New forecast layout! Learn more

10-Day Weather Forecast

Advertisements
Track Severe Weather on mobile